Time;durP1;ratioP1;P1;durP2;ratioP2;P2;SDS_P1;SDS_P2;PMS_P1;PMS_P2;Temp;Humidity;BMP_temperature;BMP_pressure;BME280_temperature;BME280_humidity;BME280_pressure;Samples;Min_cycle;Max_cycle;Signal;HPM_P1;HPM_P2
2023/09/08 00:01:31;;;;;;;5.70;5.25;;;;;;;;;;4956677;28;20204;-73
2023/09/08 00:03:57;;;;;;;6.60;5.43;;;;;;;;;;4956999;28;20295;-73
2023/09/08 00:06:23;;;;;;;6.07;5.47;;;;;;;;;;4956440;28;20683;-71
2023/09/08 00:08:49;;;;;;;5.60;4.88;;;;;;;;;;4956412;28;20585;-72
2023/09/08 00:11:16;;;;;;;7.38;4.90;;;;;;;;;;4956948;28;20204;-72
2023/09/08 00:13:42;;;;;;;4.95;4.45;;;;;;;;;;4956374;28;20208;-72
2023/09/08 00:16:10;;;;;;;7.53;5.32;;;;;;;;;;4956297;28;20232;-72
2023/09/08 00:18:37;;;;;;;5.20;4.80;;;;;;;;;;4956294;28;20665;-72
2023/09/08 00:21:03;;;;;;;7.43;5.65;;;;;;;;;;4956483;28;20212;-73
2023/09/08 00:23:30;;;;;;;5.60;5.20;;;;;;;;;;4956407;28;20202;-72
2023/09/08 00:25:56;;;;;;;7.88;5.25;;;;;;;;;;4955924;28;20220;-72
2023/09/08 00:28:22;;;;;;;5.00;4.70;;;;;;;;;;4956039;28;20217;-72
2023/09/08 00:30:49;;;;;;;8.52;5.35;;;;;;;;;;4955995;28;20208;-72
2023/09/08 00:33:15;;;;;;;6.45;5.20;;;;;;;;;;4956204;28;20794;-72
2023/09/08 00:35:49;;;;;;;5.90;5.38;;;;;;;;;;4956004;28;20255;-72
2023/09/08 00:38:15;;;;;;;6.13;5.50;;;;;;;;;;4956156;28;20205;-72
2023/09/08 00:40:41;;;;;;;7.90;5.60;;;;;;;;;;4955842;28;20704;-72
2023/09/08 00:43:07;;;;;;;5.85;5.35;;;;;;;;;;4955661;28;20200;-72
2023/09/08 00:45:37;;;;;;;4.88;4.35;;;;;;;;;;4955772;28;20231;-72
2023/09/08 00:48:04;;;;;;;5.97;5.38;;;;;;;;;;4955589;28;20705;-72
2023/09/08 00:50:30;;;;;;;7.03;5.68;;;;;;;;;;4955724;28;20599;-72
2023/09/08 00:52:58;;;;;;;6.68;5.25;;;;;;;;;;4955643;28;20201;-72
2023/09/08 00:55:24;;;;;;;6.03;5.55;;;;;;;;;;4955015;28;20228;-72
2023/09/08 00:57:51;;;;;;;8.98;5.70;;;;;;;;;;4955647;28;20208;-72
2023/09/08 01:00:17;;;;;;;5.82;5.43;;;;;;;;;;4955590;28;20220;-72
2023/09/08 01:02:45;;;;;;;9.80;5.90;;;;;;;;;;4955556;28;20251;-72
2023/09/08 01:05:11;;;;;;;5.72;5.25;;;;;;;;;;4955086;28;20663;-72
2023/09/08 01:07:37;;;;;;;5.63;5.20;;;;;;;;;;4955518;28;20224;-72
2023/09/08 01:10:06;;;;;;;5.97;5.50;;;;;;;;;;4955232;28;20578;-72
2023/09/08 01:12:33;;;;;;;5.50;5.00;;;;;;;;;;4955555;28;20239;-72
2023/09/08 01:14:59;;;;;;;6.63;5.93;;;;;;;;;;4955253;28;20296;-72
2023/09/08 01:17:26;;;;;;;5.82;5.38;;;;;;;;;;4955452;28;20212;-72
2023/09/08 01:19:54;;;;;;;6.30;5.78;;;;;;;;;;4955635;28;20223;-72
2023/09/08 01:22:35;;;;;;;5.53;5.03;;;;;;;;;;4955371;28;20232;-72
2023/09/08 01:25:09;;;;;;;8.00;5.80;;;;;;;;;;4952524;28;20243;-72
2023/09/08 01:27:36;;;;;;;6.50;5.85;;;;;;;;;;4955062;28;20306;-72
2023/09/08 01:30:04;;;;;;;5.70;5.22;;;;;;;;;;4955203;28;20205;-72
2023/09/08 01:32:30;;;;;;;6.32;5.78;;;;;;;;;;4954905;28;20208;-72
2023/09/08 01:34:58;;;;;;;7.25;5.05;;;;;;;;;;4954730;28;20231;-72
2023/09/08 01:37:24;;;;;;;6.75;6.15;;;;;;;;;;4954767;28;20622;-72
2023/09/08 01:39:50;;;;;;;7.22;5.60;;;;;;;;;;4954831;28;20208;-72
2023/09/08 01:42:18;;;;;;;6.35;5.85;;;;;;;;;;4954902;28;20204;-72
2023/09/08 01:44:44;;;;;;;6.05;5.55;;;;;;;;;;4954467;28;20716;-72
2023/09/08 01:47:11;;;;;;;6.53;5.90;;;;;;;;;;4955054;28;20212;-72
2023/09/08 01:49:38;;;;;;;6.28;5.85;;;;;;;;;;4954832;28;20225;-72
2023/09/08 01:52:04;;;;;;;7.50;5.53;;;;;;;;;;4955020;28;20248;-72
2023/09/08 01:54:30;;;;;;;5.85;5.30;;;;;;;;;;4954350;28;20208;-72
2023/09/08 01:56:57;;;;;;;7.47;6.30;;;;;;;;;;4954517;28;20577;-72
2023/09/08 01:59:24;;;;;;;6.60;6.00;;;;;;;;;;4954633;28;20227;-72
2023/09/08 02:01:50;;;;;;;6.30;5.70;;;;;;;;;;4954461;28;20200;-72
2023/09/08 02:04:17;;;;;;;7.75;5.70;;;;;;;;;;4953909;28;20214;-72
2023/09/08 02:06:43;;;;;;;8.30;6.30;;;;;;;;;;4954316;28;20231;-72
2023/09/08 02:09:10;;;;;;;6.80;5.50;;;;;;;;;;4953857;28;20243;-72
2023/09/08 02:11:36;;;;;;;6.28;5.57;;;;;;;;;;4954153;28;20704;-73
2023/09/08 02:14:03;;;;;;;7.30;6.60;;;;;;;;;;4954212;28;20204;-73
2023/09/08 02:16:30;;;;;;;5.88;5.30;;;;;;;;;;4953984;28;20232;-73
2023/09/08 02:18:56;;;;;;;7.70;5.80;;;;;;;;;;4954102;28;20488;-73
2023/09/08 02:21:23;;;;;;;6.40;5.53;;;;;;;;;;4954164;28;20700;-73
2023/09/08 02:23:49;;;;;;;6.63;6.13;;;;;;;;;;4954130;28;20557;-73
2023/09/08 02:26:15;;;;;;;6.18;5.68;;;;;;;;;;4953751;28;20307;-73
2023/09/08 02:28:41;;;;;;;9.75;6.55;;;;;;;;;;4953988;28;20239;-73
2023/09/08 02:31:08;;;;;;;6.25;5.65;;;;;;;;;;4953987;28;20212;-73
2023/09/08 02:33:35;;;;;;;7.95;6.07;;;;;;;;;;4953765;28;20200;-73
2023/09/08 02:36:02;;;;;;;6.32;5.70;;;;;;;;;;4953753;28;20232;-73
2023/09/08 02:38:28;;;;;;;7.00;6.30;;;;;;;;;;4954312;28;20207;-73
2023/09/08 02:40:55;;;;;;;6.50;5.90;;;;;;;;;;4954004;28;20204;-73
2023/09/08 02:43:21;;;;;;;6.20;5.57;;;;;;;;;;4953978;28;20201;-73
2023/09/08 02:45:47;;;;;;;6.53;5.95;;;;;;;;;;4953623;28;20228;-73
2023/09/08 02:48:14;;;;;;;7.15;5.70;;;;;;;;;;4953824;28;20705;-73
2023/09/08 02:50:41;;;;;;;6.25;5.53;;;;;;;;;;4953767;28;20590;-73
2023/09/08 02:53:08;;;;;;;6.13;5.63;;;;;;;;;;4953531;28;20578;-72
2023/09/08 02:55:34;;;;;;;5.85;5.45;;;;;;;;;;4953363;28;20641;-73
2023/09/08 02:58:00;;;;;;;7.05;6.35;;;;;;;;;;4953989;28;20212;-73
2023/09/08 03:00:27;;;;;;;5.65;5.20;;;;;;;;;;4953537;28;20215;-73
2023/09/08 03:02:53;;;;;;;6.30;5.88;;;;;;;;;;4953761;28;20216;-73
2023/09/08 03:05:19;;;;;;;6.63;6.07;;;;;;;;;;4952856;28;20231;-73
2023/09/08 03:07:49;;;;;;;7.78;5.85;;;;;;;;;;4952986;28;20688;-73
2023/09/08 03:10:15;;;;;;;6.03;5.63;;;;;;;;;;4953416;28;20236;-73
2023/09/08 03:12:42;;;;;;;6.93;6.30;;;;;;;;;;4953534;28;20208;-73
2023/09/08 03:15:08;;;;;;;6.75;6.15;;;;;;;;;;4953034;28;20794;-73
2023/09/08 03:17:35;;;;;;;6.53;5.57;;;;;;;;;;4953960;28;20204;-72
2023/09/08 03:20:01;;;;;;;6.80;6.07;;;;;;;;;;4953373;28;20208;-73
2023/09/08 03:22:27;;;;;;;6.72;6.13;;;;;;;;;;4953551;28;20578;-73
2023/09/08 03:24:55;;;;;;;6.00;5.40;;;;;;;;;;4953547;28;20224;-73
2023/09/08 03:27:21;;;;;;;7.78;6.15;;;;;;;;;;4953540;28;20204;-72
2023/09/08 03:29:47;;;;;;;6.30;5.70;;;;;;;;;;4953232;28;20231;-72
2023/09/08 03:32:14;;;;;;;7.20;6.35;;;;;;;;;;4953138;28;20211;-73
2023/09/08 03:34:40;;;;;;;8.65;6.53;;;;;;;;;;4953124;28;20212;-72
2023/09/08 03:37:06;;;;;;;6.22;5.70;;;;;;;;;;4953537;28;20287;-73
2023/09/08 03:39:32;;;;;;;6.30;5.80;;;;;;;;;;4953344;28;20201;-73
2023/09/08 03:42:00;;;;;;;6.15;5.55;;;;;;;;;;4953356;28;20200;-73
2023/09/08 03:44:26;;;;;;;6.57;6.00;;;;;;;;;;4952974;28;20696;-73
2023/09/08 03:46:53;;;;;;;6.78;6.03;;;;;;;;;;4953418;28;20251;-73
2023/09/08 03:49:20;;;;;;;7.63;6.00;;;;;;;;;;4953348;28;20224;-73
2023/09/08 03:51:46;;;;;;;7.05;6.45;;;;;;;;;;4953244;28;20208;-73
2023/09/08 03:54:12;;;;;;;6.70;6.10;;;;;;;;;;4953216;28;20212;-73
2023/09/08 03:56:38;;;;;;;6.55;6.07;;;;;;;;;;4952678;28;20599;-73
2023/09/08 03:59:06;;;;;;;6.30;5.80;;;;;;;;;;4953162;28;20205;-73
2023/09/08 04:01:32;;;;;;;7.35;6.65;;;;;;;;;;4953545;28;20205;-73
2023/09/08 04:03:58;;;;;;;7.93;6.35;;;;;;;;;;4953473;28;20201;-73
2023/09/08 04:06:25;;;;;;;7.40;6.18;;;;;;;;;;4952682;28;20225;-73
2023/09/08 04:08:51;;;;;;;6.47;5.75;;;;;;;;;;4952761;28;20660;-73
2023/09/08 04:11:17;;;;;;;6.70;6.18;;;;;;;;;;4952922;28;20209;-72
2023/09/08 04:13:43;;;;;;;6.05;5.63;;;;;;;;;;4953327;28;20205;-73
2023/09/08 04:16:11;;;;;;;6.22;5.75;;;;;;;;;;4952815;28;20224;-73
2023/09/08 04:18:37;;;;;;;6.78;6.07;;;;;;;;;;4955633;28;20215;-73
2023/09/08 04:21:03;;;;;;;6.55;6.05;;;;;;;;;;4956335;28;20204;-72
2023/09/08 04:23:30;;;;;;;6.32;5.80;;;;;;;;;;4956184;28;20204;-72
2023/09/08 04:25:56;;;;;;;7.10;5.78;;;;;;;;;;4955885;28;20240;-73
2023/09/08 04:28:22;;;;;;;7.05;6.45;;;;;;;;;;4955935;28;20212;-61
2023/09/08 04:30:49;;;;;;;7.03;6.32;;;;;;;;;;4956106;28;20700;-61
2023/09/08 04:33:16;;;;;;;7.20;6.60;;;;;;;;;;4955867;28;20549;-61
2023/09/08 04:35:44;;;;;;;6.88;6.30;;;;;;;;;;4955551;28;20232;-62
2023/09/08 04:38:11;;;;;;;6.85;6.35;;;;;;;;;;4955797;28;20207;-61
2023/09/08 04:40:37;;;;;;;6.85;6.25;;;;;;;;;;4955720;28;20638;-61
2023/09/08 04:43:03;;;;;;;8.52;6.65;;;;;;;;;;4956044;28;20618;-61
2023/09/08 04:45:30;;;;;;;7.30;6.70;;;;;;;;;;4955620;28;20224;-61
2023/09/08 04:47:56;;;;;;;7.38;6.68;;;;;;;;;;4955824;28;20415;-61
2023/09/08 04:50:23;;;;;;;8.18;6.28;;;;;;;;;;4955765;28;20232;-62
2023/09/08 04:52:50;;;;;;;7.60;6.90;;;;;;;;;;4955637;28;20225;-61
2023/09/08 04:55:16;;;;;;;9.20;6.32;;;;;;;;;;4955172;28;20228;-64
2023/09/08 04:57:42;;;;;;;7.93;6.15;;;;;;;;;;4955856;28;20208;-62
2023/09/08 05:00:09;;;;;;;9.50;6.63;;;;;;;;;;4955589;28;20201;-61
2023/09/08 05:02:35;;;;;;;7.63;6.68;;;;;;;;;;4955945;28;20235;-61
2023/09/08 05:05:01;;;;;;;7.25;6.60;;;;;;;;;;4955244;28;20608;-61
2023/09/08 05:07:29;;;;;;;8.15;7.10;;;;;;;;;;4955533;28;20201;-61
2023/09/08 05:09:55;;;;;;;8.80;8.00;;;;;;;;;;4955379;28;20410;-61
2023/09/08 05:12:22;;;;;;;7.90;6.50;;;;;;;;;;4955558;28;20209;-61
2023/09/08 05:14:48;;;;;;;7.68;6.90;;;;;;;;;;4955138;28;20228;-61
2023/09/08 05:17:14;;;;;;;8.20;6.88;;;;;;;;;;4955119;28;20207;-62
2023/09/08 05:19:40;;;;;;;7.05;6.45;;;;;;;;;;4968616;28;20215;-61
2023/09/08 05:22:07;;;;;;;9.15;6.88;;;;;;;;;;4968309;28;20262;-62
2023/09/08 05:24:34;;;;;;;7.55;6.85;;;;;;;;;;4968349;28;20227;-61
2023/09/08 05:27:00;;;;;;;10.55;7.45;;;;;;;;;;4968805;28;20211;-62
2023/09/08 05:29:27;;;;;;;8.82;7.78;;;;;;;;;;4967565;28;20231;-62
2023/09/08 05:31:53;;;;;;;8.18;7.28;;;;;;;;;;4968685;28;20707;-61
2023/09/08 05:34:19;;;;;;;9.80;7.25;;;;;;;;;;4968465;28;20614;-62
2023/09/08 05:36:45;;;;;;;10.13;7.53;;;;;;;;;;4968011;28;20653;-62
2023/09/08 05:39:13;;;;;;;8.27;7.15;;;;;;;;;;4968340;28;20614;-60
2023/09/08 05:41:41;;;;;;;9.65;7.78;;;;;;;;;;4968435;28;20216;-61
2023/09/08 05:44:07;;;;;;;9.10;7.70;;;;;;;;;;4947915;28;20224;-63
2023/09/08 05:46:33;;;;;;;9.18;7.10;;;;;;;;;;4945472;28;20232;-62
2023/09/08 05:48:59;;;;;;;12.65;8.13;;;;;;;;;;4945816;28;20239;-62
2023/09/08 05:51:26;;;;;;;14.90;8.40;;;;;;;;;;4946146;28;20693;-62
2023/09/08 05:53:52;;;;;;;13.18;9.23;;;;;;;;;;4946605;28;20223;-63
2023/09/08 05:56:19;;;;;;;10.82;7.82;;;;;;;;;;4945936;28;20232;-62
2023/09/08 05:58:47;;;;;;;17.45;9.07;;;;;;;;;;4944822;28;20208;-62
2023/09/08 06:01:13;;;;;;;9.82;8.88;;;;;;;;;;4947318;28;20843;-60
2023/09/08 06:03:40;;;;;;;16.38;8.73;;;;;;;;;;4956822;28;20251;-59
2023/09/08 06:06:06;;;;;;;15.55;8.75;;;;;;;;;;4960353;28;20236;-60
2023/09/08 06:08:33;;;;;;;19.75;8.85;;;;;;;;;;4947027;28;20227;-62
2023/09/08 06:10:59;;;;;;;13.30;8.98;;;;;;;;;;4946894;28;20236;-61
2023/09/08 06:13:25;;;;;;;12.13;8.80;;;;;;;;;;4951402;28;20320;-63
2023/09/08 06:15:53;;;;;;;16.45;8.60;;;;;;;;;;4947316;28;20239;-61
2023/09/08 06:18:19;;;;;;;16.25;9.60;;;;;;;;;;4947742;28;20964;-60
2023/09/08 06:20:46;;;;;;;19.77;11.60;;;;;;;;;;4949906;28;20295;-61
2023/09/08 06:23:12;;;;;;;13.40;10.77;;;;;;;;;;4949333;28;20204;-60
2023/09/08 06:25:39;;;;;;;20.65;12.82;;;;;;;;;;4957599;28;20729;-62
2023/09/08 06:28:05;;;;;;;14.57;11.13;;;;;;;;;;4957557;28;20286;-62
2023/09/08 06:30:31;;;;;;;25.55;13.05;;;;;;;;;;4966725;28;20251;-62
2023/09/08 06:32:59;;;;;;;23.50;12.65;;;;;;;;;;4950626;28;20218;-62
2023/09/08 06:35:27;;;;;;;19.00;11.25;;;;;;;;;;4947459;28;20228;-62
2023/09/08 06:37:53;;;;;;;16.40;11.48;;;;;;;;;;4948011;28;20216;-62
2023/09/08 06:40:19;;;;;;;17.85;11.13;;;;;;;;;;4948135;28;20204;-62
2023/09/08 06:42:45;;;;;;;11.82;9.85;;;;;;;;;;4947826;28;20603;-62
2023/09/08 06:45:13;;;;;;;13.77;10.90;;;;;;;;;;4951071;28;20224;-61
2023/09/08 06:47:39;;;;;;;14.25;10.40;;;;;;;;;;4948352;28;20295;-62
2023/09/08 06:50:07;;;;;;;10.75;9.65;;;;;;;;;;4949571;28;20236;-62
2023/09/08 06:52:34;;;;;;;12.13;10.05;;;;;;;;;;4948980;28;20247;-62
2023/09/08 06:55:00;;;;;;;14.60;10.68;;;;;;;;;;4964445;28;20422;-61
2023/09/08 06:57:26;;;;;;;11.93;10.35;;;;;;;;;;4946076;28;20212;-60
2023/09/08 06:59:52;;;;;;;12.82;10.20;;;;;;;;;;4949091;28;20207;-60
2023/09/08 07:02:19;;;;;;;11.20;10.10;;;;;;;;;;4950046;28;20235;-60
2023/09/08 07:04:45;;;;;;;11.77;10.65;;;;;;;;;;4945823;28;20228;-60
2023/09/08 07:07:12;;;;;;;13.68;9.50;;;;;;;;;;4952219;28;20568;-60
2023/09/08 07:09:39;;;;;;;11.60;10.40;;;;;;;;;;4963209;28;20849;-61
2023/09/08 07:12:06;;;;;;;10.73;9.52;;;;;;;;;;4966546;28;20227;-62
2023/09/08 07:14:32;;;;;;;15.10;10.45;;;;;;;;;;4950245;28;20212;-61
2023/09/08 07:16:58;;;;;;;14.90;9.63;;;;;;;;;;4945834;28;20212;-60
2023/09/08 07:19:26;;;;;;;12.30;9.90;;;;;;;;;;4961520;28;20219;-62
2023/09/08 07:21:52;;;;;;;11.23;10.13;;;;;;;;;;4953851;28;20218;-62
2023/09/08 07:24:20;;;;;;;12.88;10.75;;;;;;;;;;4965458;28;20215;-62
2023/09/08 07:26:46;;;;;;;11.13;9.88;;;;;;;;;;4965566;28;20232;-60
2023/09/08 07:29:12;;;;;;;13.15;9.60;;;;;;;;;;4965548;28;20693;-62
2023/09/08 07:31:39;;;;;;;11.63;10.10;;;;;;;;;;4959550;28;20216;-61
2023/09/08 07:34:05;;;;;;;15.55;9.95;;;;;;;;;;4958684;28;20235;-61
2023/09/08 07:36:31;;;;;;;12.40;9.18;;;;;;;;;;4958492;28;20232;-63
2023/09/08 07:38:58;;;;;;;14.32;9.38;;;;;;;;;;4966197;28;20600;-62
2023/09/08 07:41:25;;;;;;;13.30;10.40;;;;;;;;;;4965753;28;20215;-62
2023/09/08 07:43:52;;;;;;;11.55;10.38;;;;;;;;;;4963769;28;20216;-61
2023/09/08 07:46:18;;;;;;;11.75;9.65;;;;;;;;;;4945451;28;20239;-61
2023/09/08 07:48:44;;;;;;;16.15;9.82;;;;;;;;;;4946197;28;20217;-61
2023/09/08 07:51:10;;;;;;;11.85;9.85;;;;;;;;;;4945883;28;20625;-60
2023/09/08 07:53:37;;;;;;;9.95;8.88;;;;;;;;;;4949163;28;20216;-61
2023/09/08 07:56:04;;;;;;;13.25;9.43;;;;;;;;;;4950013;28;20232;-61
2023/09/08 07:58:32;;;;;;;16.90;9.52;;;;;;;;;;4949902;28;20209;-62
2023/09/08 08:00:58;;;;;;;10.07;8.93;;;;;;;;;;4949600;28;20220;-61
2023/09/08 08:03:24;;;;;;;12.25;9.48;;;;;;;;;;4949387;28;20212;-62
2023/09/08 08:05:50;;;;;;;10.20;8.55;;;;;;;;;;4950324;28;20261;-61
2023/09/08 08:08:17;;;;;;;12.52;8.57;;;;;;;;;;4961896;28;20224;-62
2023/09/08 08:10:43;;;;;;;10.63;8.68;;;;;;;;;;4949118;28;20747;-62
2023/09/08 08:13:09;;;;;;;14.05;8.88;;;;;;;;;;4952744;28;20208;-61
2023/09/08 08:15:37;;;;;;;12.77;8.45;;;;;;;;;;4948830;28;20235;-62
2023/09/08 08:18:04;;;;;;;9.25;8.30;;;;;;;;;;4949661;28;20219;-62
2023/09/08 08:20:34;;;;;;;9.63;8.13;;;;;;;;;;4949912;28;20204;-63
2023/09/08 08:23:00;;;;;;;11.07;7.53;;;;;;;;;;4949890;28;20227;-61
2023/09/08 08:25:26;;;;;;;9.55;7.38;;;;;;;;;;4962879;28;20254;-61
2023/09/08 08:27:53;;;;;;;7.65;6.95;;;;;;;;;;4969328;28;20234;-61
2023/09/08 08:30:19;;;;;;;11.40;6.68;;;;;;;;;;4966363;28;20227;-61
2023/09/08 08:32:47;;;;;;;9.32;6.85;;;;;;;;;;4950118;28;20513;-62
2023/09/08 08:35:13;;;;;;;7.88;5.78;;;;;;;;;;4948699;28;20712;-62
2023/09/08 08:37:40;;;;;;;8.07;6.18;;;;;;;;;;4949416;28;20208;-61
2023/09/08 08:40:08;;;;;;;8.35;5.65;;;;;;;;;;4953933;28;20721;-62
2023/09/08 08:42:34;;;;;;;7.57;5.90;;;;;;;;;;4951815;28;20908;-63
2023/09/08 08:45:01;;;;;;;6.68;6.07;;;;;;;;;;4962059;28;20231;-62
2023/09/08 08:47:28;;;;;;;6.55;5.90;;;;;;;;;;4968032;28;20224;-61
2023/09/08 08:49:56;;;;;;;7.95;5.80;;;;;;;;;;4968108;28;20223;-62
2023/09/08 08:52:22;;;;;;;7.03;6.32;;;;;;;;;;4968638;28;20207;-62
2023/09/08 08:54:49;;;;;;;7.15;6.45;;;;;;;;;;4967427;28;20246;-62
2023/09/08 08:57:15;;;;;;;6.57;5.97;;;;;;;;;;4968635;28;20211;-62
2023/09/08 08:59:42;;;;;;;6.70;5.80;;;;;;;;;;4968276;28;20692;-63
2023/09/08 09:02:09;;;;;;;6.40;5.80;;;;;;;;;;4968367;28;20219;-62
2023/09/08 09:04:37;;;;;;;6.85;5.97;;;;;;;;;;4967760;28;20219;-61
2023/09/08 09:07:04;;;;;;;8.85;5.97;;;;;;;;;;4968448;28;20215;-61
2023/09/08 09:09:31;;;;;;;6.35;5.85;;;;;;;;;;4966073;28;20219;-61
2023/09/08 09:11:57;;;;;;;7.20;6.28;;;;;;;;;;4952414;28;20219;-61
2023/09/08 09:14:23;;;;;;;9.63;6.95;;;;;;;;;;4953836;28;20212;-61
2023/09/08 09:16:50;;;;;;;6.55;5.65;;;;;;;;;;4948741;28;20706;-62
2023/09/08 09:19:25;;;;;;;7.60;5.72;;;;;;;;;;4949279;28;20212;-60
2023/09/08 09:21:54;;;;;;;8.25;6.47;;;;;;;;;;4948453;28;20208;-61
2023/09/08 09:24:30;;;;;;;8.27;5.80;;;;;;;;;;4952568;28;20219;-64
2023/09/08 09:26:56;;;;;;;8.30;6.65;;;;;;;;;;4948262;28;20214;-62
2023/09/08 09:29:22;;;;;;;9.98;6.18;;;;;;;;;;4951184;28;20658;-62
2023/09/08 09:31:53;;;;;;;9.20;5.65;;;;;;;;;;4960444;28;20273;-64
2023/09/08 09:34:20;;;;;;;8.82;5.15;;;;;;;;;;4955108;28;20759;-63
2023/09/08 09:36:49;;;;;;;8.20;5.15;;;;;;;;;;4967800;28;20223;-61
2023/09/08 09:39:16;;;;;;;5.93;5.47;;;;;;;;;;4967257;28;20330;-62
2023/09/08 09:41:44;;;;;;;5.90;5.35;;;;;;;;;;4966788;28;20672;-65
2023/09/08 09:44:11;;;;;;;8.10;5.68;;;;;;;;;;4959918;28;20212;-65
2023/09/08 09:46:37;;;;;;;4.97;4.68;;;;;;;;;;4949173;28;20228;-64
2023/09/08 09:49:04;;;;;;;7.68;4.93;;;;;;;;;;4966933;28;20219;-64
2023/09/08 09:51:30;;;;;;;5.88;5.32;;;;;;;;;;4967613;28;20231;-64
2023/09/08 09:53:58;;;;;;;5.82;5.32;;;;;;;;;;4967374;28;20739;-64
2023/09/08 09:56:25;;;;;;;6.50;5.20;;;;;;;;;;4953157;28;20227;-63
2023/09/08 09:58:53;;;;;;;13.98;5.00;;;;;;;;;;4947628;28;20659;-63
2023/09/08 10:01:20;;;;;;;6.30;5.65;;;;;;;;;;4964648;28;20214;-63
2023/09/08 10:03:46;;;;;;;6.22;5.57;;;;;;;;;;4966080;28;20219;-63
2023/09/08 10:06:13;;;;;;;7.63;5.65;;;;;;;;;;4950749;28;20232;-63
2023/09/08 10:08:40;;;;;;;6.10;5.50;;;;;;;;;;4952159;28;20214;-64
2023/09/08 10:11:08;;;;;;;7.82;5.32;;;;;;;;;;4966295;28;20238;-64
2023/09/08 10:13:39;;;;;;;12.73;5.40;;;;;;;;;;4955377;28;20203;-63
2023/09/08 10:16:08;;;;;;;6.10;5.32;;;;;;;;;;4949620;28;20235;-63
2023/09/08 10:18:35;;;;;;;8.43;5.68;;;;;;;;;;4947231;28;20313;-62
2023/09/08 10:21:05;;;;;;;6.85;5.15;;;;;;;;;;4947368;28;20250;-64
2023/09/08 10:23:34;;;;;;;6.88;5.40;;;;;;;;;;4947581;28;20597;-63
2023/09/08 10:26:04;;;;;;;6.88;5.40;;;;;;;;;;4946459;28;20603;-64
2023/09/08 10:28:31;;;;;;;7.63;5.18;;;;;;;;;;4955141;28;20211;-63
2023/09/08 10:30:57;;;;;;;6.32;5.10;;;;;;;;;;4965593;28;20334;-64
2023/09/08 10:33:26;;;;;;;5.15;4.75;;;;;;;;;;4963540;28;20215;-63
2023/09/08 10:35:52;;;;;;;10.55;5.68;;;;;;;;;;4957809;28;20227;-64
2023/09/08 10:38:25;;;;;;;5.82;5.00;;;;;;;;;;4966025;28;20222;-63
2023/09/08 10:40:52;;;;;;;6.72;4.97;;;;;;;;;;4947351;28;20211;-63
2023/09/08 10:43:19;;;;;;;8.10;4.32;;;;;;;;;;4947021;28;20216;-64
2023/09/08 10:45:46;;;;;;;6.75;4.82;;;;;;;;;;4946408;28;20227;-63
2023/09/08 10:48:14;;;;;;;8.27;4.72;;;;;;;;;;4947220;28;20215;-63
2023/09/08 10:50:42;;;;;;;4.88;4.40;;;;;;;;;;4946993;28;20605;-63
2023/09/08 10:53:11;;;;;;;6.45;4.43;;;;;;;;;;4953664;28;20222;-63
2023/09/08 10:55:38;;;;;;;4.88;4.30;;;;;;;;;;4966002;28;20258;-63
2023/09/08 10:58:04;;;;;;;4.57;4.20;;;;;;;;;;4966598;28;20218;-63
2023/09/08 11:00:43;;;;;;;4.40;4.07;;;;;;;;;;4953280;28;20212;-64
2023/09/08 11:03:09;;;;;;;4.68;4.30;;;;;;;;;;4946431;28;20220;-63
2023/09/08 11:05:35;;;;;;;4.72;4.43;;;;;;;;;;4955457;28;20223;-63
2023/09/08 11:08:04;;;;;;;5.03;4.63;;;;;;;;;;4966140;28;20215;-63
2023/09/08 11:10:31;;;;;;;5.28;4.68;;;;;;;;;;4965724;28;20246;-63
2023/09/08 11:12:57;;;;;;;5.13;4.72;;;;;;;;;;4963476;28;20207;-63
2023/09/08 11:15:23;;;;;;;5.22;4.78;;;;;;;;;;4946708;28;20610;-63
2023/09/08 11:17:51;;;;;;;5.32;4.90;;;;;;;;;;4946309;28;20219;-63
2023/09/08 11:20:26;;;;;;;7.13;5.13;;;;;;;;;;4946400;28;20216;-63
2023/09/08 11:22:53;;;;;;;6.07;4.70;;;;;;;;;;4946193;28;20676;-63
2023/09/08 11:25:21;;;;;;;5.00;4.35;;;;;;;;;;4946495;28;20591;-64
2023/09/08 11:27:47;;;;;;;6.22;4.90;;;;;;;;;;4947963;28;20589;-64
2023/09/08 11:30:13;;;;;;;4.47;4.18;;;;;;;;;;4950773;28;20243;-64
2023/09/08 11:32:40;;;;;;;5.05;4.57;;;;;;;;;;4950170;28;20322;-63
2023/09/08 11:35:08;;;;;;;5.88;4.78;;;;;;;;;;4950069;28;20228;-63
2023/09/08 11:37:38;;;;;;;5.30;4.80;;;;;;;;;;4950128;28;20237;-62
2023/09/08 11:40:11;;;;;;;5.50;4.82;;;;;;;;;;4950557;28;20242;-62
2023/09/08 11:42:43;;;;;;;5.07;4.63;;;;;;;;;;4950945;28;20267;-62
2023/09/08 11:45:10;;;;;;;4.55;4.35;;;;;;;;;;4949540;28;20227;-62
2023/09/08 11:47:37;;;;;;;4.60;4.30;;;;;;;;;;4964511;28;20234;-63
2023/09/08 11:50:03;;;;;;;4.80;4.32;;;;;;;;;;4967499;28;20218;-61
2023/09/08 11:52:30;;;;;;;7.50;4.60;;;;;;;;;;4950231;28;20654;-63
2023/09/08 11:54:56;;;;;;;5.05;4.55;;;;;;;;;;4950176;28;20652;-63
2023/09/08 11:57:22;;;;;;;7.72;4.50;;;;;;;;;;4949981;28;20236;-64
2023/09/08 11:59:51;;;;;;;5.88;4.50;;;;;;;;;;4950253;28;20219;-63
2023/09/08 12:02:17;;;;;;;4.47;4.07;;;;;;;;;;4952784;28;20215;-64
2023/09/08 12:04:43;;;;;;;4.45;4.13;;;;;;;;;;4949545;28;20239;-64
2023/09/08 12:07:14;;;;;;;5.55;4.10;;;;;;;;;;4950165;28;20216;-62
2023/09/08 12:09:40;;;;;;;4.65;4.32;;;;;;;;;;4949550;28;20941;-64
2023/09/08 12:12:11;;;;;;;5.00;4.32;;;;;;;;;;4954183;28;20223;-64
2023/09/08 12:14:40;;;;;;;4.50;4.05;;;;;;;;;;4953074;28;20667;-63
2023/09/08 12:17:08;;;;;;;6.43;4.18;;;;;;;;;;4959604;28;20207;-64
2023/09/08 12:19:36;;;;;;;4.35;3.95;;;;;;;;;;4969009;28;20261;-64
2023/09/08 12:22:03;;;;;;;4.82;4.50;;;;;;;;;;4969090;28;20686;-65
2023/09/08 12:24:49;;;;;;;4.28;3.90;;;;;;;;;;4962782;28;20215;-63
2023/09/08 12:27:15;;;;;;;4.40;4.10;;;;;;;;;;4968848;28;20215;-63
2023/09/08 12:29:42;;;;;;;4.18;3.80;;;;;;;;;;4969138;28;20294;-64
2023/09/08 12:32:09;;;;;;;7.05;4.63;;;;;;;;;;4964449;28;20223;-64
2023/09/08 12:34:36;;;;;;;5.88;4.47;;;;;;;;;;4962989;28;20203;-64
2023/09/08 12:37:02;;;;;;;10.43;4.38;;;;;;;;;;4959478;28;20204;-64
2023/09/08 12:39:28;;;;;;;4.60;4.20;;;;;;;;;;4956968;28;20294;-64
2023/09/08 12:41:54;;;;;;;4.85;4.45;;;;;;;;;;4959122;28;20210;-64
2023/09/08 12:44:21;;;;;;;3.97;3.78;;;;;;;;;;4958567;28;20212;-64
2023/09/08 12:46:47;;;;;;;4.45;4.20;;;;;;;;;;4964294;28;20231;-64
2023/09/08 12:49:14;;;;;;;7.03;4.43;;;;;;;;;;4967902;28;20248;-65
2023/09/08 12:51:41;;;;;;;4.30;4.00;;;;;;;;;;4968786;28;20231;-64
2023/09/08 12:54:07;;;;;;;4.75;4.35;;;;;;;;;;4968194;28;20215;-65
2023/09/08 12:56:34;;;;;;;4.82;4.30;;;;;;;;;;4967723;28;20231;-64
2023/09/08 12:59:01;;;;;;;4.95;4.40;;;;;;;;;;4965691;28;20219;-64
2023/09/08 13:01:27;;;;;;;4.75;4.43;;;;;;;;;;4948982;28;20218;-64
2023/09/08 13:03:53;;;;;;;4.88;4.30;;;;;;;;;;4948606;28;20234;-65
2023/09/08 13:06:21;;;;;;;4.90;4.50;;;;;;;;;;4959390;28;20234;-64
2023/09/08 13:08:47;;;;;;;5.47;4.60;;;;;;;;;;4968392;28;20219;-64
2023/09/08 13:11:13;;;;;;;4.63;4.25;;;;;;;;;;4963786;28;20224;-65
2023/09/08 13:13:39;;;;;;;4.45;4.10;;;;;;;;;;4958072;28;20211;-64
2023/09/08 13:16:06;;;;;;;8.13;4.22;;;;;;;;;;4947984;28;20837;-64
2023/09/08 13:18:38;;;;;;;4.80;4.38;;;;;;;;;;4949264;28;20588;-64
2023/09/08 13:21:05;;;;;;;7.97;4.38;;;;;;;;;;4962804;28;20227;-63
2023/09/08 13:23:32;;;;;;;4.32;4.00;;;;;;;;;;4969821;28;20234;-64
2023/09/08 13:25:58;;;;;;;4.95;4.20;;;;;;;;;;4967167;28;20246;-64
2023/09/08 13:28:25;;;;;;;4.85;4.45;;;;;;;;;;4961698;28;20217;-63
2023/09/08 13:30:51;;;;;;;6.07;4.70;;;;;;;;;;4967529;28;20204;-64
2023/09/08 13:33:17;;;;;;;5.72;4.93;;;;;;;;;;4963640;28;20231;-64
2023/09/08 13:35:43;;;;;;;4.72;4.32;;;;;;;;;;4970872;28;20227;-64
2023/09/08 13:38:10;;;;;;;5.13;4.68;;;;;;;;;;4961824;28;20208;-64
2023/09/08 13:40:37;;;;;;;5.30;4.30;;;;;;;;;;4968991;28;20211;-63
2023/09/08 13:43:04;;;;;;;5.45;4.90;;;;;;;;;;4968095;28;20204;-63
2023/09/08 13:45:30;;;;;;;9.32;4.68;;;;;;;;;;4959861;28;20230;-63
2023/09/08 13:47:57;;;;;;;5.53;5.03;;;;;;;;;;4964884;28;20219;-63
2023/09/08 13:50:23;;;;;;;7.05;5.15;;;;;;;;;;4966277;28;20672;-63
2023/09/08 13:52:49;;;;;;;6.30;5.00;;;;;;;;;;4970892;28;20251;-64
2023/09/08 13:55:16;;;;;;;5.40;4.55;;;;;;;;;;4966790;28;20599;-64
2023/09/08 13:57:43;;;;;;;5.13;4.70;;;;;;;;;;4965790;28;20207;-63
2023/09/08 14:00:11;;;;;;;6.28;4.50;;;;;;;;;;4965911;28;20199;-63
2023/09/08 14:02:37;;;;;;;5.70;4.35;;;;;;;;;;4965107;28;20199;-63
2023/09/08 14:05:04;;;;;;;5.47;4.15;;;;;;;;;;4968621;28;20219;-62
2023/09/08 14:07:30;;;;;;;5.40;4.90;;;;;;;;;;4963560;28;20214;-63
2023/09/08 14:09:57;;;;;;;4.97;4.63;;;;;;;;;;4966215;28;20219;-62
2023/09/08 14:12:24;;;;;;;4.70;4.40;;;;;;;;;;4961991;28;20238;-63
2023/09/08 14:14:52;;;;;;;5.03;4.35;;;;;;;;;;4968497;28;20223;-64
2023/09/08 14:17:18;;;;;;;5.00;4.53;;;;;;;;;;4970451;28;20958;-77
2023/09/08 14:19:45;;;;;;;5.15;4.68;;;;;;;;;;4958484;28;20219;-77
2023/09/08 14:22:11;;;;;;;4.68;4.25;;;;;;;;;;4961601;28;20220;-76
2023/09/08 14:24:37;;;;;;;5.07;4.60;;;;;;;;;;4970079;28;20218;-77
2023/09/08 14:27:03;;;;;;;5.50;4.25;;;;;;;;;;4970442;28;20589;-76
2023/09/08 14:29:30;;;;;;;4.32;3.92;;;;;;;;;;4970522;28;20210;-75
2023/09/08 14:31:57;;;;;;;4.88;4.47;;;;;;;;;;4970644;28;20303;-77
2023/09/08 14:34:23;;;;;;;4.70;4.30;;;;;;;;;;4969957;28;20683;-77
2023/09/08 14:36:50;;;;;;;4.50;4.03;;;;;;;;;;4970082;28;20204;-77
2023/09/08 14:39:17;;;;;;;4.95;4.47;;;;;;;;;;4970457;28;20235;-76